AMX1122 MMMY-MMQT
Flight info
| Callsign | AMX1122 |
|---|---|
| Flight time | 0h 52m |
| Altitude | 37000 |
| Route | KERGA1A KERGA UJ81 MORAS/N0458F380 UJ17 QET |
| Aircraft | B738/M-SDE2E3FGHIRWXY/LB1 |
Departure
| Time | 2026-04-18 07:22 |
|---|---|
| Airport | Monterrey International Airport (MMMY) |
Arrival
| Time | 2026-04-18 08:15 |
|---|---|
| Airport | Querétaro Intercontinental Airport (MMQT) |
| Time | Latitude | Longitude | Altitude | Speed | Heading |
|---|---|---|---|---|---|
| 2026-04-18 06:47 | 25.77543 | -100.11068 | 1279 ft | 0 kts | 243° |
| 2026-04-18 07:09 | 25.77544 | -100.11066 | 1279 ft | 2 kts | 244° |
| 2026-04-18 07:10 | 25.77553 | -100.11040 | 1281 ft | 4 kts | 256° |
| 2026-04-18 07:10 | 25.77556 | -100.11011 | 1282 ft | 4 kts | 283° |
| 2026-04-18 07:10 | 25.77544 | -100.10990 | 1284 ft | 4 kts | 340° |
| 2026-04-18 07:10 | 25.77521 | -100.10983 | 1281 ft | 4 kts | 347° |
| 2026-04-18 07:11 | 25.77495 | -100.10976 | 1281 ft | 4 kts | 346° |
| 2026-04-18 07:11 | 25.77487 | -100.10974 | 1281 ft | 1 kts | 345° |
| 2026-04-18 07:17 | 25.77500 | -100.10977 | 1280 ft | 4 kts | 345° |
| 2026-04-18 07:17 | 25.77546 | -100.10991 | 1281 ft | 10 kts | 345° |
| 2026-04-18 07:18 | 25.77628 | -100.11035 | 1279 ft | 12 kts | 307° |
| 2026-04-18 07:18 | 25.77690 | -100.11089 | 1279 ft | 13 kts | 343° |
| 2026-04-18 07:18 | 25.77780 | -100.11065 | 1280 ft | 13 kts | 30° |
| 2026-04-18 07:18 | 25.77847 | -100.11086 | 1282 ft | 13 kts | 302° |
| 2026-04-18 07:19 | 25.77901 | -100.11185 | 1280 ft | 17 kts | 301° |
| 2026-04-18 07:19 | 25.77970 | -100.11311 | 1280 ft | 21 kts | 301° |
| 2026-04-18 07:19 | 25.78039 | -100.11437 | 1280 ft | 17 kts | 302° |
| 2026-04-18 07:19 | 25.78110 | -100.11564 | 1280 ft | 22 kts | 301° |
| 2026-04-18 07:20 | 25.78197 | -100.11722 | 1280 ft | 26 kts | 302° |
| 2026-04-18 07:20 | 25.78257 | -100.11808 | 1280 ft | 8 kts | 352° |
| 2026-04-18 07:20 | 25.78318 | -100.11774 | 1280 ft | 12 kts | 31° |
| 2026-04-18 07:20 | 25.78389 | -100.11727 | 1282 ft | 8 kts | 31° |
| 2026-04-18 07:21 | 25.78393 | -100.11676 | 1282 ft | 6 kts | 120° |
| 2026-04-18 07:21 | 25.78392 | -100.11674 | 1282 ft | 0 kts | 120° |
| 2026-04-18 07:21 | 25.78378 | -100.11649 | 1280 ft | 26 kts | 120° |
| 2026-04-18 07:22 | 25.78129 | -100.11194 | 1280 ft | 111 kts | 122° |
| 2026-04-18 07:22 | 25.77594 | -100.10207 | 1372 ft | 175 kts | 119° |
| 2026-04-18 07:22 | 25.76929 | -100.09022 | 2284 ft | 187 kts | 122° |
| 2026-04-18 07:22 | 25.76218 | -100.07752 | 3121 ft | 198 kts | 124° |
| 2026-04-18 07:23 | 25.75474 | -100.06431 | 3819 ft | 206 kts | 124° |
| 2026-04-18 07:23 | 25.74729 | -100.05081 | 4446 ft | 209 kts | 124° |
| 2026-04-18 07:23 | 25.73979 | -100.03682 | 5096 ft | 211 kts | 123° |
| 2026-04-18 07:23 | 25.73192 | -100.02245 | 5512 ft | 226 kts | 124° |
| 2026-04-18 07:24 | 25.72345 | -100.00708 | 5815 ft | 246 kts | 123° |
| 2026-04-18 07:24 | 25.71364 | -99.99050 | 6217 ft | 263 kts | 133° |
| 2026-04-18 07:24 | 25.69866 | -99.97888 | 6891 ft | 268 kts | 158° |
| 2026-04-18 07:24 | 25.68023 | -99.97503 | 7564 ft | 274 kts | 178° |
| 2026-04-18 07:25 | 25.66069 | -99.97527 | 8281 ft | 279 kts | 181° |
| 2026-04-18 07:25 | 25.64139 | -99.97604 | 8999 ft | 283 kts | 181° |
| 2026-04-18 07:25 | 25.62153 | -99.97687 | 9725 ft | 287 kts | 182° |
| 2026-04-18 07:25 | 25.60136 | -99.97768 | 10329 ft | 295 kts | 182° |
| 2026-04-18 07:26 | 25.58007 | -99.97846 | 10497 ft | 318 kts | 182° |
| 2026-04-18 07:26 | 25.55694 | -99.97926 | 10670 ft | 339 kts | 182° |
| 2026-04-18 07:26 | 25.53293 | -99.98004 | 10801 ft | 359 kts | 182° |
| 2026-04-18 07:26 | 25.50593 | -99.98088 | 10932 ft | 377 kts | 182° |
| 2026-04-18 07:27 | 25.47912 | -99.98169 | 11076 ft | 392 kts | 182° |
| 2026-04-18 07:27 | 25.45167 | -99.98250 | 11432 ft | 398 kts | 182° |
| 2026-04-18 07:27 | 25.42356 | -99.98333 | 11953 ft | 400 kts | 182° |
| 2026-04-18 07:27 | 25.39565 | -99.98416 | 12462 ft | 402 kts | 183° |
| 2026-04-18 07:28 | 25.36761 | -99.98499 | 12937 ft | 404 kts | 183° |
| 2026-04-18 07:28 | 25.33937 | -99.98597 | 13403 ft | 407 kts | 184° |
| 2026-04-18 07:28 | 25.31130 | -99.98727 | 13828 ft | 410 kts | 184° |
| 2026-04-18 07:28 | 25.28235 | -99.98872 | 14242 ft | 413 kts | 185° |
| 2026-04-18 07:29 | 25.25355 | -99.99018 | 14641 ft | 416 kts | 185° |
| 2026-04-18 07:29 | 25.22450 | -99.99164 | 15040 ft | 419 kts | 185° |
| 2026-04-18 07:29 | 25.19533 | -99.99307 | 15440 ft | 421 kts | 185° |
| 2026-04-18 07:29 | 25.16595 | -99.99449 | 15825 ft | 424 kts | 185° |
| 2026-04-18 07:30 | 25.13639 | -99.99590 | 16165 ft | 426 kts | 185° |
| 2026-04-18 07:30 | 25.10495 | -99.99740 | 16506 ft | 430 kts | 185° |
| 2026-04-18 07:30 | 25.07500 | -99.99882 | 16985 ft | 431 kts | 185° |
| 2026-04-18 07:30 | 25.04539 | -100.00023 | 17293 ft | 434 kts | 185° |
| 2026-04-18 07:31 | 25.01505 | -100.00167 | 17570 ft | 438 kts | 186° |
| 2026-04-18 07:31 | 24.98452 | -100.00312 | 17994 ft | 438 kts | 185° |
| 2026-04-18 07:31 | 24.95403 | -100.00457 | 18364 ft | 440 kts | 185° |
| 2026-04-18 07:31 | 24.92324 | -100.00440 | 18685 ft | 444 kts | 179° |
| 2026-04-18 07:32 | 24.89229 | -100.00112 | 19016 ft | 448 kts | 176° |
| 2026-04-18 07:32 | 24.86132 | -99.99666 | 19322 ft | 450 kts | 175° |
| 2026-04-18 07:32 | 24.83019 | -99.99204 | 19637 ft | 451 kts | 175° |
| 2026-04-18 07:32 | 24.79893 | -99.98772 | 19948 ft | 452 kts | 176° |
| 2026-04-18 07:33 | 24.76780 | -99.98373 | 20357 ft | 451 kts | 177° |
| 2026-04-18 07:33 | 24.73653 | -99.97996 | 20573 ft | 454 kts | 177° |
| 2026-04-18 07:33 | 24.70502 | -99.97623 | 20843 ft | 456 kts | 177° |
| 2026-04-18 07:33 | 24.67338 | -99.97249 | 21143 ft | 457 kts | 177° |
| 2026-04-18 07:34 | 24.64188 | -99.96873 | 21406 ft | 457 kts | 177° |
| 2026-04-18 07:34 | 24.61012 | -99.96495 | 21667 ft | 459 kts | 177° |
| 2026-04-18 07:34 | 24.57830 | -99.96117 | 21913 ft | 460 kts | 177° |
| 2026-04-18 07:34 | 24.54643 | -99.95738 | 22187 ft | 461 kts | 177° |
| 2026-04-18 07:35 | 24.51450 | -99.95358 | 22463 ft | 461 kts | 177° |
| 2026-04-18 07:35 | 24.48254 | -99.94978 | 22753 ft | 462 kts | 177° |
| 2026-04-18 07:35 | 24.45054 | -99.94598 | 23004 ft | 463 kts | 177° |
| 2026-04-18 07:35 | 24.41840 | -99.94216 | 23243 ft | 464 kts | 177° |
| 2026-04-18 07:36 | 24.38632 | -99.93835 | 23471 ft | 465 kts | 177° |
| 2026-04-18 07:36 | 24.35455 | -99.93458 | 23689 ft | 465 kts | 178° |
| 2026-04-18 07:36 | 24.32230 | -99.93075 | 23882 ft | 466 kts | 178° |
| 2026-04-18 07:36 | 24.29002 | -99.92693 | 24017 ft | 467 kts | 178° |
| 2026-04-18 07:37 | 24.25759 | -99.92309 | 24164 ft | 469 kts | 178° |
| 2026-04-18 07:37 | 24.22517 | -99.91925 | 24301 ft | 470 kts | 178° |
| 2026-04-18 07:37 | 24.19256 | -99.91539 | 24443 ft | 471 kts | 177° |
| 2026-04-18 07:37 | 24.15995 | -99.91153 | 24589 ft | 472 kts | 178° |
| 2026-04-18 07:38 | 24.12714 | -99.90765 | 24735 ft | 473 kts | 178° |
| 2026-04-18 07:38 | 24.09438 | -99.90378 | 24870 ft | 474 kts | 178° |
| 2026-04-18 07:38 | 24.06148 | -99.89989 | 25016 ft | 475 kts | 178° |
| 2026-04-18 07:38 | 24.03930 | -99.89727 | 25109 ft | 476 kts | 178° |
| 2026-04-18 07:39 | 24.00644 | -99.89339 | 25244 ft | 477 kts | 178° |
| 2026-04-18 07:39 | 23.97339 | -99.88949 | 25377 ft | 478 kts | 178° |
| 2026-04-18 07:39 | 23.94028 | -99.88558 | 25547 ft | 478 kts | 178° |
| 2026-04-18 07:39 | 23.90727 | -99.88168 | 25757 ft | 476 kts | 178° |
| 2026-04-18 07:40 | 23.87434 | -99.87780 | 26009 ft | 475 kts | 178° |
| 2026-04-18 07:40 | 23.84145 | -99.87395 | 26184 ft | 475 kts | 178° |
| 2026-04-18 07:40 | 23.80858 | -99.87013 | 26384 ft | 475 kts | 178° |
| 2026-04-18 07:40 | 23.77567 | -99.86631 | 26629 ft | 474 kts | 178° |
| 2026-04-18 07:41 | 23.74293 | -99.86251 | 26885 ft | 473 kts | 178° |
| 2026-04-18 07:41 | 23.71020 | -99.85870 | 27109 ft | 473 kts | 178° |
| 2026-04-18 07:41 | 23.67748 | -99.85490 | 27325 ft | 473 kts | 178° |
| 2026-04-18 07:41 | 23.64480 | -99.85111 | 27576 ft | 472 kts | 178° |
| 2026-04-18 07:42 | 23.61216 | -99.84732 | 27826 ft | 471 kts | 178° |
| 2026-04-18 07:42 | 23.57950 | -99.84353 | 28099 ft | 471 kts | 178° |
| 2026-04-18 07:42 | 23.54693 | -99.83975 | 28377 ft | 470 kts | 178° |
| 2026-04-18 07:42 | 23.51446 | -99.83599 | 28651 ft | 469 kts | 178° |
| 2026-04-18 07:43 | 23.48205 | -99.83223 | 28924 ft | 468 kts | 178° |
| 2026-04-18 07:43 | 23.45010 | -99.82853 | 29200 ft | 467 kts | 178° |
| 2026-04-18 07:43 | 23.41777 | -99.82478 | 29454 ft | 467 kts | 179° |
| 2026-04-18 07:43 | 23.38502 | -99.82100 | 29730 ft | 466 kts | 179° |
| 2026-04-18 07:44 | 23.35281 | -99.81728 | 30043 ft | 465 kts | 179° |
| 2026-04-18 07:44 | 23.32103 | -99.81361 | 30337 ft | 464 kts | 179° |
| 2026-04-18 07:44 | 23.28862 | -99.80987 | 30670 ft | 461 kts | 179° |
| 2026-04-18 07:44 | 23.25715 | -99.80624 | 31006 ft | 459 kts | 179° |
| 2026-04-18 07:45 | 23.22512 | -99.80254 | 31353 ft | 456 kts | 179° |
| 2026-04-18 07:45 | 23.19361 | -99.79891 | 31679 ft | 454 kts | 179° |
| 2026-04-18 07:45 | 23.16227 | -99.79532 | 31960 ft | 453 kts | 179° |
| 2026-04-18 07:45 | 23.13099 | -99.79172 | 32245 ft | 451 kts | 179° |
| 2026-04-18 07:46 | 23.10026 | -99.78819 | 32566 ft | 449 kts | 179° |
| 2026-04-18 07:46 | 23.06887 | -99.78458 | 32910 ft | 447 kts | 179° |
| 2026-04-18 07:46 | 23.03804 | -99.78103 | 33252 ft | 444 kts | 179° |
| 2026-04-18 07:46 | 23.00778 | -99.77756 | 33581 ft | 442 kts | 179° |
| 2026-04-18 07:47 | 22.97718 | -99.77404 | 33917 ft | 440 kts | 179° |
| 2026-04-18 07:47 | 22.94689 | -99.76907 | 34202 ft | 442 kts | 174° |
| 2026-04-18 07:47 | 22.91630 | -99.76217 | 34423 ft | 443 kts | 173° |
| 2026-04-18 07:47 | 22.88618 | -99.75483 | 34600 ft | 444 kts | 173° |
| 2026-04-18 07:48 | 22.85598 | -99.74733 | 34802 ft | 444 kts | 173° |
| 2026-04-18 07:48 | 22.82590 | -99.73993 | 35033 ft | 443 kts | 173° |
| 2026-04-18 07:48 | 22.79583 | -99.73264 | 35250 ft | 442 kts | 173° |
| 2026-04-18 07:48 | 22.76584 | -99.72547 | 35457 ft | 442 kts | 173° |
| 2026-04-18 07:49 | 22.73613 | -99.71845 | 35649 ft | 442 kts | 173° |
| 2026-04-18 07:49 | 22.70612 | -99.71140 | 35850 ft | 441 kts | 173° |
| 2026-04-18 07:49 | 22.67609 | -99.70436 | 36072 ft | 441 kts | 173° |
| 2026-04-18 07:49 | 22.64615 | -99.69736 | 36255 ft | 441 kts | 173° |
| 2026-04-18 07:50 | 22.61621 | -99.69034 | 36441 ft | 440 kts | 173° |
| 2026-04-18 07:50 | 22.58602 | -99.68327 | 36664 ft | 440 kts | 173° |
| 2026-04-18 07:50 | 22.55597 | -99.67623 | 36883 ft | 438 kts | 173° |
| 2026-04-18 07:50 | 22.52620 | -99.66926 | 36945 ft | 440 kts | 173° |
| 2026-04-18 07:51 | 22.46640 | -99.65528 | 36948 ft | 439 kts | 173° |
| 2026-04-18 07:51 | 22.40678 | -99.64133 | 36939 ft | 437 kts | 173° |
| 2026-04-18 07:52 | 22.34746 | -99.62748 | 36936 ft | 436 kts | 173° |
| 2026-04-18 07:52 | 22.28828 | -99.61367 | 36938 ft | 434 kts | 173° |
| 2026-04-18 07:53 | 22.22954 | -99.59997 | 36933 ft | 434 kts | 173° |
| 2026-04-18 07:53 | 22.17045 | -99.59207 | 36941 ft | 423 kts | 187° |
| 2026-04-18 07:54 | 22.11293 | -99.60232 | 36919 ft | 416 kts | 202° |
| 2026-04-18 07:54 | 22.05866 | -99.62396 | 36915 ft | 416 kts | 203° |
| 2026-04-18 07:55 | 22.00442 | -99.64609 | 36911 ft | 417 kts | 203° |
| 2026-04-18 07:55 | 21.94988 | -99.66801 | 36899 ft | 418 kts | 202° |
| 2026-04-18 07:56 | 21.89514 | -99.68980 | 36893 ft | 419 kts | 202° |
| 2026-04-18 07:56 | 21.84042 | -99.71152 | 36893 ft | 419 kts | 202° |
| 2026-04-18 07:57 | 21.78560 | -99.73326 | 36891 ft | 420 kts | 202° |
| 2026-04-18 07:57 | 21.73065 | -99.75505 | 36775 ft | 423 kts | 202° |
| 2026-04-18 07:58 | 21.67513 | -99.77705 | 35615 ft | 424 kts | 202° |
| 2026-04-18 07:58 | 21.64740 | -99.78803 | 34932 ft | 425 kts | 202° |
| 2026-04-18 07:58 | 21.61959 | -99.79903 | 34204 ft | 428 kts | 201° |
| 2026-04-18 07:59 | 21.59148 | -99.81015 | 33418 ft | 431 kts | 201° |
| 2026-04-18 07:59 | 21.56325 | -99.82131 | 32636 ft | 433 kts | 201° |
| 2026-04-18 07:59 | 21.53488 | -99.83253 | 31790 ft | 437 kts | 201° |
| 2026-04-18 07:59 | 21.50615 | -99.84392 | 30773 ft | 444 kts | 202° |
| 2026-04-18 08:00 | 21.47682 | -99.85556 | 29732 ft | 452 kts | 202° |
| 2026-04-18 08:00 | 21.44715 | -99.86733 | 28619 ft | 457 kts | 202° |
| 2026-04-18 08:00 | 21.41720 | -99.87919 | 27561 ft | 461 kts | 202° |
| 2026-04-18 08:00 | 21.38699 | -99.89115 | 26555 ft | 463 kts | 202° |
| 2026-04-18 08:01 | 21.35672 | -99.90313 | 25672 ft | 464 kts | 202° |
| 2026-04-18 08:01 | 21.32656 | -99.91505 | 24929 ft | 461 kts | 202° |
| 2026-04-18 08:01 | 21.29658 | -99.92690 | 24208 ft | 457 kts | 202° |
| 2026-04-18 08:01 | 21.26681 | -99.93866 | 23500 ft | 455 kts | 202° |
| 2026-04-18 08:02 | 21.23714 | -99.95037 | 22684 ft | 452 kts | 202° |
| 2026-04-18 08:02 | 21.20783 | -99.96195 | 21936 ft | 447 kts | 202° |
| 2026-04-18 08:02 | 21.17877 | -99.97343 | 21223 ft | 443 kts | 201° |
| 2026-04-18 08:02 | 21.14991 | -99.98483 | 20519 ft | 439 kts | 201° |
| 2026-04-18 08:03 | 21.12133 | -99.99611 | 19801 ft | 436 kts | 201° |
| 2026-04-18 08:03 | 21.09294 | -100.00731 | 19100 ft | 433 kts | 200° |
| 2026-04-18 08:03 | 21.06482 | -100.01840 | 18410 ft | 430 kts | 200° |
| 2026-04-18 08:03 | 21.03668 | -100.02948 | 17438 ft | 432 kts | 200° |
| 2026-04-18 08:04 | 21.00857 | -100.04055 | 16744 ft | 427 kts | 200° |
| 2026-04-18 08:04 | 20.98088 | -100.05142 | 16117 ft | 421 kts | 200° |
| 2026-04-18 08:04 | 20.95380 | -100.06203 | 15458 ft | 418 kts | 200° |
| 2026-04-18 08:04 | 20.92656 | -100.07271 | 14802 ft | 415 kts | 201° |
| 2026-04-18 08:05 | 20.89943 | -100.08334 | 14164 ft | 413 kts | 201° |
| 2026-04-18 08:05 | 20.87255 | -100.09387 | 13540 ft | 411 kts | 201° |
| 2026-04-18 08:05 | 20.84581 | -100.10435 | 12901 ft | 407 kts | 200° |
| 2026-04-18 08:05 | 20.84278 | -100.10553 | 12836 ft | 406 kts | 200° |
| 2026-04-18 08:06 | 20.83926 | -100.10691 | 12761 ft | 406 kts | 200° |
| 2026-04-18 08:06 | 20.81431 | -100.12030 | 12145 ft | 401 kts | 218° |
| 2026-04-18 08:06 | 20.79668 | -100.14282 | 11628 ft | 396 kts | 244° |
| 2026-04-18 08:06 | 20.79039 | -100.17062 | 11538 ft | 375 kts | 270° |
| 2026-04-18 08:07 | 20.79580 | -100.19685 | 11404 ft | 354 kts | 296° |
| 2026-04-18 08:07 | 20.80981 | -100.21741 | 11221 ft | 333 kts | 307° |
| 2026-04-18 08:07 | 20.81886 | -100.23943 | 11006 ft | 320 kts | 276° |
| 2026-04-18 08:07 | 20.81606 | -100.26283 | 10888 ft | 323 kts | 245° |
| 2026-04-18 08:08 | 20.80441 | -100.28237 | 10895 ft | 298 kts | 230° |
| 2026-04-18 08:08 | 20.79205 | -100.29898 | 10816 ft | 275 kts | 233° |
| 2026-04-18 08:08 | 20.78151 | -100.31514 | 10660 ft | 257 kts | 233° |
| 2026-04-18 08:08 | 20.77077 | -100.33006 | 10390 ft | 246 kts | 229° |
| 2026-04-18 08:09 | 20.75956 | -100.34324 | 10231 ft | 231 kts | 224° |
| 2026-04-18 08:09 | 20.74791 | -100.35486 | 10093 ft | 222 kts | 219° |
| 2026-04-18 08:09 | 20.73590 | -100.36508 | 9986 ft | 220 kts | 214° |
| 2026-04-18 08:09 | 20.72322 | -100.37429 | 9891 ft | 222 kts | 210° |
| 2026-04-18 08:10 | 20.70974 | -100.38261 | 9776 ft | 225 kts | 207° |
| 2026-04-18 08:10 | 20.69570 | -100.38999 | 9644 ft | 224 kts | 202° |
| 2026-04-18 08:10 | 20.68104 | -100.39479 | 9486 ft | 218 kts | 182° |
| 2026-04-18 08:10 | 20.66661 | -100.39174 | 9345 ft | 208 kts | 152° |
| 2026-04-18 08:11 | 20.65594 | -100.38226 | 9239 ft | 198 kts | 128° |
| 2026-04-18 08:11 | 20.64964 | -100.36934 | 9110 ft | 198 kts | 107° |
| 2026-04-18 08:11 | 20.64652 | -100.35491 | 8922 ft | 200 kts | 102° |
| 2026-04-18 08:11 | 20.64391 | -100.34038 | 8713 ft | 199 kts | 102° |
| 2026-04-18 08:12 | 20.64140 | -100.32588 | 8496 ft | 198 kts | 102° |
| 2026-04-18 08:12 | 20.63885 | -100.31154 | 8290 ft | 196 kts | 102° |
| 2026-04-18 08:12 | 20.63632 | -100.29736 | 8145 ft | 191 kts | 102° |
| 2026-04-18 08:12 | 20.63382 | -100.28348 | 8045 ft | 190 kts | 102° |
| 2026-04-18 08:13 | 20.63220 | -100.27453 | 7922 ft | 179 kts | 102° |
| 2026-04-18 08:13 | 20.63000 | -100.26227 | 7834 ft | 161 kts | 100° |
| 2026-04-18 08:13 | 20.62812 | -100.25055 | 7713 ft | 154 kts | 99° |
| 2026-04-18 08:13 | 20.62644 | -100.23934 | 7589 ft | 152 kts | 98° |
| 2026-04-18 08:14 | 20.62481 | -100.22810 | 7372 ft | 155 kts | 98° |
| 2026-04-18 08:14 | 20.62302 | -100.21676 | 7110 ft | 154 kts | 99° |
| 2026-04-18 08:14 | 20.62108 | -100.20541 | 6740 ft | 156 kts | 100° |
| 2026-04-18 08:14 | 20.61903 | -100.19447 | 6630 ft | 139 kts | 101° |
| 2026-04-18 08:15 | 20.61739 | -100.18562 | 6631 ft | 104 kts | 101° |
| 2026-04-18 08:15 | 20.61629 | -100.17970 | 6627 ft | 47 kts | 101° |
| 2026-04-18 08:15 | 20.61591 | -100.17692 | 6627 ft | 28 kts | 85° |
| 2026-04-18 08:15 | 20.61635 | -100.17518 | 6628 ft | 21 kts | 71° |
| 2026-04-18 08:16 | 20.61678 | -100.17411 | 6627 ft | 12 kts | 37° |
| 2026-04-18 08:16 | 20.61694 | -100.17419 | 6626 ft | 2 kts | 284° |
| 2026-04-18 08:16 | 20.61697 | -100.17436 | 6625 ft | 4 kts | 279° |
| 2026-04-18 08:16 | 20.61703 | -100.17474 | 6624 ft | 7 kts | 282° |
| 2026-04-18 08:17 | 20.61714 | -100.17532 | 6622 ft | 9 kts | 282° |
| 2026-04-18 08:17 | 20.61729 | -100.17609 | 6622 ft | 12 kts | 280° |
| 2026-04-18 08:17 | 20.61746 | -100.17705 | 6623 ft | 14 kts | 281° |
| 2026-04-18 08:17 | 20.61767 | -100.17815 | 6622 ft | 16 kts | 281° |
| 2026-04-18 08:18 | 20.61788 | -100.17935 | 6623 ft | 15 kts | 282° |
| 2026-04-18 08:18 | 20.61795 | -100.17974 | 6622 ft | 0 kts | 281° |
| 2026-04-18 08:21 | 20.61797 | -100.17983 | 6621 ft | 10 kts | 281° |
| 2026-04-18 08:21 | 20.61817 | -100.18094 | 6615 ft | 15 kts | 281° |
| 2026-04-18 08:21 | 20.61838 | -100.18207 | 6616 ft | 15 kts | 281° |
| 2026-04-18 08:21 | 20.61857 | -100.18310 | 6617 ft | 15 kts | 281° |
| 2026-04-18 08:22 | 20.61878 | -100.18423 | 6615 ft | 15 kts | 281° |
| 2026-04-18 08:22 | 20.61899 | -100.18537 | 6612 ft | 15 kts | 281° |
| 2026-04-18 08:22 | 20.61911 | -100.18615 | 6613 ft | 8 kts | 269° |
| 2026-04-18 08:22 | 20.61943 | -100.18683 | 6613 ft | 15 kts | 331° |
| 2026-04-18 08:23 | 20.62016 | -100.18687 | 6613 ft | 8 kts | 19° |
| 2026-04-18 08:23 | 20.62068 | -100.18682 | 6613 ft | 9 kts | 333° |
| 2026-04-18 08:23 | 20.62100 | -100.18731 | 6613 ft | 8 kts | 288° |
| 2026-04-18 08:23 | 20.62107 | -100.18769 | 6612 ft | 7 kts | 316° |
| 2026-04-18 08:24 | 20.62153 | -100.18777 | 6612 ft | 7 kts | 11° |
| 2026-04-18 08:24 | 20.62196 | -100.18754 | 6610 ft | 8 kts | 39° |
| 2026-04-18 08:24 | 20.62202 | -100.18748 | 6609 ft | 1 kts | 40° |